Time;durP1;ratioP1;P1;durP2;ratioP2;P2;SDS_P1;SDS_P2;PMS_P1;PMS_P2;Temp;Humidity;BMP_temperature;BMP_pressure;BME280_temperature;BME280_humidity;BME280_pressure;Samples;Min_cycle;Max_cycle;Signal;HPM_P1;HPM_P2
2022/05/04 00:02:17;;;;;;;;;28.25;26.00;;;;;;;;5052875;28;45241;-76
2022/05/04 00:04:42;;;;;;;;;23.75;21.75;;;;;;;;5054030;28;45211;-76
2022/05/04 00:07:07;;;;;;;;;26.50;23.50;;;;;;;;5053264;28;46861;-76
2022/05/04 00:09:32;;;;;;;;;39.75;31.50;;;;;;;;5058279;28;45378;-76
2022/05/04 00:11:57;;;;;;;;;32.00;26.75;;;;;;;;5053669;28;45526;-76
2022/05/04 00:14:25;;;;;;;;;32.50;29.50;;;;;;;;5058758;28;45346;-76
2022/05/04 00:16:50;;;;;;;;;26.25;25.50;;;;;;;;5054405;28;46442;-76
2022/05/04 00:19:16;;;;;;;;;29.50;27.00;;;;;;;;5057751;28;45410;-76
2022/05/04 00:21:41;;;;;;;;;26.25;22.50;;;;;;;;5052624;28;45477;-77
2022/05/04 00:24:06;;;;;;;;;24.00;24.00;;;;;;;;5054534;28;45524;-77
2022/05/04 00:26:31;;;;;;;;;26.25;24.75;;;;;;;;5057050;28;45382;-76
2022/05/04 00:28:57;;;;;;;;;25.00;23.75;;;;;;;;5054895;28;45672;-77
2022/05/04 00:31:22;;;;;;;;;31.00;26.00;;;;;;;;5057471;28;45414;-76
2022/05/04 00:33:47;;;;;;;;;27.50;27.50;;;;;;;;5054474;28;45370;-76
2022/05/04 00:36:12;;;;;;;;;26.75;26.25;;;;;;;;5057222;28;46255;-76
2022/05/04 00:38:37;;;;;;;;;28.25;23.25;;;;;;;;5051682;28;45299;-76
2022/05/04 00:41:03;;;;;;;;;28.75;25.00;;;;;;;;5058375;28;46485;-76
2022/05/04 00:43:28;;;;;;;;;24.00;22.00;;;;;;;;5053114;28;45499;-76
2022/05/04 00:45:54;;;;;;;;;30.00;25.00;;;;;;;;5058947;28;46702;-77
2022/05/04 00:48:19;;;;;;;;;29.50;23.25;;;;;;;;5054213;28;45423;-76
2022/05/04 00:50:45;;;;;;;;;35.75;28.50;;;;;;;;5059194;28;45229;-76
2022/05/04 00:53:11;;;;;;;;;33.75;29.50;;;;;;;;5055829;28;45364;-76
2022/05/04 00:55:36;;;;;;;;;25.00;23.75;;;;;;;;5058580;28;45099;-76
2022/05/04 01:00:48;;;;;;;;;32.75;28.50;;;;;;;;5050767;28;45236;-76
2022/05/04 01:03:13;;;;;;;;;34.25;28.25;;;;;;;;5048437;28;45312;-77
2022/05/04 01:05:39;;;;;;;;;26.25;23.25;;;;;;;;5058828;28;46379;-76
2022/05/04 01:08:04;;;;;;;;;28.75;26.75;;;;;;;;5052413;28;45475;-77
2022/05/04 01:10:29;;;;;;;;;29.75;26.75;;;;;;;;5059041;28;45327;-76
2022/05/04 01:12:54;;;;;;;;;41.00;29.50;;;;;;;;5051991;28;45398;-76
2022/05/04 01:15:21;;;;;;;;;31.25;27.25;;;;;;;;5057034;28;48266;-77
2022/05/04 01:17:47;;;;;;;;;28.50;27.50;;;;;;;;5051968;28;45313;-76
2022/05/04 01:20:13;;;;;;;;;28.75;22.00;;;;;;;;5058499;28;45309;-77
2022/05/04 01:22:38;;;;;;;;;30.25;28.00;;;;;;;;5051787;28;45748;-76
2022/05/04 01:25:04;;;;;;;;;32.75;31.00;;;;;;;;5058428;28;47271;-76
2022/05/04 01:27:29;;;;;;;;;32.50;26.25;;;;;;;;5051826;28;45225;-76
2022/05/04 01:29:55;;;;;;;;;28.25;26.00;;;;;;;;5058395;28;45226;-76
2022/05/04 01:32:20;;;;;;;;;28.50;25.50;;;;;;;;5051580;28;45561;-76
2022/05/04 01:34:45;;;;;;;;;33.75;29.00;;;;;;;;5057056;28;45901;-76
2022/05/04 01:37:10;;;;;;;;;29.75;26.25;;;;;;;;5050935;28;45558;-76
2022/05/04 01:39:36;;;;;;;;;30.50;25.75;;;;;;;;5057380;28;45296;-76
2022/05/04 01:42:05;;;;;;;;;28.00;27.25;;;;;;;;5053200;28;45300;-76
2022/05/04 01:44:30;;;;;;;;;30.00;28.00;;;;;;;;5046559;28;47388;-76
2022/05/04 01:46:56;;;;;;;;;39.50;31.75;;;;;;;;5054398;28;44753;-75
2022/05/04 01:49:21;;;;;;;;;39.00;32.50;;;;;;;;5056312;28;45350;-75
2022/05/04 01:51:46;;;;;;;;;30.25;25.75;;;;;;;;5056022;28;45728;-75
2022/05/04 01:54:11;;;;;;;;;35.00;32.00;;;;;;;;5050044;28;46255;-76
2022/05/04 01:56:37;;;;;;;;;44.25;36.50;;;;;;;;5055848;28;45328;-75
2022/05/04 01:59:02;;;;;;;;;34.25;32.00;;;;;;;;5049104;28;45361;-76
2022/05/04 02:01:28;;;;;;;;;32.75;29.75;;;;;;;;5055858;28;45228;-74
2022/05/04 02:03:53;;;;;;;;;32.75;29.25;;;;;;;;5049850;28;45264;-75
2022/05/04 02:06:18;;;;;;;;;30.00;26.50;;;;;;;;5056402;28;45401;-77
2022/05/04 02:08:45;;;;;;;;;25.00;21.00;;;;;;;;5056920;28;45189;-76
2022/05/04 02:11:10;;;;;;;;;30.50;26.50;;;;;;;;5060215;28;45543;-76
2022/05/04 02:13:35;;;;;;;;;30.25;26.75;;;;;;;;5056570;28;46505;-76
2022/05/04 02:16:01;;;;;;;;;30.00;25.75;;;;;;;;5060822;28;45138;-76
2022/05/04 02:18:26;;;;;;;;;29.75;28.00;;;;;;;;5055343;28;45510;-76
2022/05/04 02:20:51;;;;;;;;;30.25;25.75;;;;;;;;5061292;28;45167;-76
2022/05/04 02:23:16;;;;;;;;;31.75;25.50;;;;;;;;5051770;28;46323;-76
2022/05/04 02:25:42;;;;;;;;;32.75;30.75;;;;;;;;5061257;28;45501;-76
2022/05/04 02:28:07;;;;;;;;;41.75;31.75;;;;;;;;5054515;28;45344;-76
2022/05/04 02:30:32;;;;;;;;;34.25;29.50;;;;;;;;5053071;28;45352;-76
2022/05/04 02:32:57;;;;;;;;;28.50;24.75;;;;;;;;5054191;28;45473;-76
2022/05/04 02:38:06;;;;;;;;;27.00;24.75;;;;;;;;5054521;28;45426;-75
2022/05/04 02:40:32;;;;;;;;;33.25;28.00;;;;;;;;5060622;28;45561;-76
2022/05/04 02:42:57;;;;;;;;;43.50;32.00;;;;;;;;5054649;28;45434;-75
2022/05/04 02:45:23;;;;;;;;;26.50;23.25;;;;;;;;5056154;28;45323;-75
2022/05/04 02:47:48;;;;;;;;;32.25;27.25;;;;;;;;5055779;28;45309;-75
2022/05/04 02:50:13;;;;;;;;;34.00;26.50;;;;;;;;5058699;28;45568;-76
2022/05/04 02:52:38;;;;;;;;;32.50;27.50;;;;;;;;5058682;28;46273;-75
2022/05/04 02:55:04;;;;;;;;;39.50;31.25;;;;;;;;5059723;28;45351;-75
2022/05/04 02:57:29;;;;;;;;;33.25;29.50;;;;;;;;5054013;28;45309;-75
2022/05/04 02:59:54;;;;;;;;;34.75;30.50;;;;;;;;5055753;28;45362;-76
2022/05/04 03:02:28;;;;;;;;;33.75;30.50;;;;;;;;5056708;28;46455;-75
2022/05/04 03:04:58;;;;;;;;;36.50;28.50;;;;;;;;5057317;28;45332;-75
2022/05/04 03:07:23;;;;;;;;;30.00;29.25;;;;;;;;5053569;28;45268;-75
2022/05/04 03:09:49;;;;;;;;;33.50;31.25;;;;;;;;5060541;28;45445;-75
2022/05/04 03:12:14;;;;;;;;;36.50;31.75;;;;;;;;5052770;28;48069;-75
2022/05/04 03:14:39;;;;;;;;;34.25;32.25;;;;;;;;5060184;28;45323;-75
2022/05/04 03:17:05;;;;;;;;;32.00;30.00;;;;;;;;5053917;28;45247;-76
2022/05/04 03:19:30;;;;;;;;;32.25;29.00;;;;;;;;5059014;28;45588;-75
2022/05/04 03:21:55;;;;;;;;;32.50;28.75;;;;;;;;5055051;28;45357;-75
2022/05/04 03:24:21;;;;;;;;;44.50;32.00;;;;;;;;5058810;28;45439;-75
2022/05/04 03:26:46;;;;;;;;;49.00;37.75;;;;;;;;5056545;28;45356;-75
2022/05/04 03:29:11;;;;;;;;;53.00;38.50;;;;;;;;5057323;28;45503;-76
2022/05/04 03:31:37;;;;;;;;;40.50;33.25;;;;;;;;5057463;28;46335;-75
2022/05/04 03:34:02;;;;;;;;;41.25;34.00;;;;;;;;5056121;28;45347;-76
2022/05/04 03:36:28;;;;;;;;;51.00;41.25;;;;;;;;5058325;28;45372;-75
2022/05/04 03:38:53;;;;;;;;;47.50;34.25;;;;;;;;5052872;28;45492;-76
2022/05/04 03:41:18;;;;;;;;;37.75;33.00;;;;;;;;5059037;28;46231;-76
2022/05/04 03:43:44;;;;;;;;;36.25;31.00;;;;;;;;5055685;28;45375;-76
2022/05/04 03:46:12;;;;;;;;;40.75;33.50;;;;;;;;5060793;28;45858;-76
2022/05/04 03:48:37;;;;;;;;;42.25;33.75;;;;;;;;5057626;28;45525;-76
2022/05/04 03:51:02;;;;;;;;;34.00;32.25;;;;;;;;5059593;28;46334;-76
2022/05/04 03:53:27;;;;;;;;;33.50;27.75;;;;;;;;5057145;28;45256;-76
2022/05/04 03:55:53;;;;;;;;;34.25;29.00;;;;;;;;5058757;28;45328;-76
2022/05/04 03:58:18;;;;;;;;;29.75;27.00;;;;;;;;5049058;28;45401;-76
2022/05/04 04:00:43;;;;;;;;;35.50;32.00;;;;;;;;5059571;28;46120;-76
2022/05/04 04:03:08;;;;;;;;;37.25;31.50;;;;;;;;5049406;28;45281;-76
2022/05/04 04:05:33;;;;;;;;;46.00;35.50;;;;;;;;5060054;28;45386;-76
2022/05/04 04:07:59;;;;;;;;;48.50;38.50;;;;;;;;5053222;28;45248;-76
2022/05/04 04:10:24;;;;;;;;;36.00;32.75;;;;;;;;5059574;28;46488;-76
2022/05/04 04:12:49;;;;;;;;;38.00;33.50;;;;;;;;5052999;28;45278;-76
2022/05/04 04:15:14;;;;;;;;;33.25;28.75;;;;;;;;5057659;28;45274;-76
2022/05/04 04:17:39;;;;;;;;;34.25;30.75;;;;;;;;5042808;28;47142;-76
2022/05/04 04:22:49;;;;;;;;;43.75;31.75;;;;;;;;5053335;28;45230;-76
2022/05/04 04:25:16;;;;;;;;;30.00;25.25;;;;;;;;5059437;28;45224;-77
2022/05/04 04:27:41;;;;;;;;;39.75;35.25;;;;;;;;5052669;28;45931;-76
2022/05/04 04:30:06;;;;;;;;;32.00;29.00;;;;;;;;5058836;28;46317;-76
2022/05/04 04:32:32;;;;;;;;;33.00;27.75;;;;;;;;5052600;28;45636;-76
2022/05/04 04:34:57;;;;;;;;;43.25;34.25;;;;;;;;5051578;28;45190;-76
2022/05/04 04:37:22;;;;;;;;;35.50;32.75;;;;;;;;5076781;27;46510;-76
2022/05/04 04:39:47;;;;;;;;;31.75;27.50;;;;;;;;5057721;28;47127;-76
2022/05/04 04:42:13;;;;;;;;;29.25;27.50;;;;;;;;5054342;28;45599;-76
2022/05/04 04:44:38;;;;;;;;;38.50;31.50;;;;;;;;5056619;28;45306;-76
2022/05/04 04:47:03;;;;;;;;;32.00;29.50;;;;;;;;5055631;28;45304;-76
2022/05/04 04:49:29;;;;;;;;;32.25;28.75;;;;;;;;5056461;28;45399;-76
2022/05/04 04:51:54;;;;;;;;;35.25;31.25;;;;;;;;5052765;28;45497;-76
2022/05/04 04:54:19;;;;;;;;;33.75;30.25;;;;;;;;5058478;28;45237;-76
2022/05/04 04:56:44;;;;;;;;;32.25;27.50;;;;;;;;5057262;28;45399;-76
2022/05/04 04:59:10;;;;;;;;;29.50;25.25;;;;;;;;5050237;28;45766;-76
2022/05/04 05:01:35;;;;;;;;;37.75;33.25;;;;;;;;5057674;28;45412;-76
2022/05/04 05:04:00;;;;;;;;;34.00;31.25;;;;;;;;5052160;28;45461;-76
2022/05/04 05:06:26;;;;;;;;;36.00;32.25;;;;;;;;5058257;28;45533;-77
2022/05/04 05:08:51;;;;;;;;;40.00;33.25;;;;;;;;5055077;28;45858;-76
2022/05/04 05:11:16;;;;;;;;;36.00;29.50;;;;;;;;5058818;28;44752;-76
2022/05/04 05:16:25;;;;;;;;;37.25;31.50;;;;;;;;5056713;28;45308;-76
2022/05/04 05:18:51;;;;;;;;;37.50;32.50;;;;;;;;5053748;28;46336;-76
2022/05/04 05:21:16;;;;;;;;;39.25;32.25;;;;;;;;5055913;28;45328;-76
2022/05/04 05:23:41;;;;;;;;;33.50;31.25;;;;;;;;5065216;28;45303;-76
2022/05/04 05:26:06;;;;;;;;;31.25;26.00;;;;;;;;5054689;28;45395;-76
2022/05/04 05:28:32;;;;;;;;;32.50;28.00;;;;;;;;5052312;28;45450;-76
2022/05/04 05:30:57;;;;;;;;;25.00;23.75;;;;;;;;5058564;28;45349;-76
2022/05/04 05:33:22;;;;;;;;;34.25;30.25;;;;;;;;5052489;28;45240;-76
2022/05/04 05:35:47;;;;;;;;;31.25;28.25;;;;;;;;5057228;28;47264;-76
2022/05/04 05:38:13;;;;;;;;;34.25;26.50;;;;;;;;5054860;28;45446;-77
2022/05/04 05:40:38;;;;;;;;;32.50;30.25;;;;;;;;5054875;28;45266;-76
2022/05/04 05:43:03;;;;;;;;;31.75;30.75;;;;;;;;5058238;28;45445;-76
2022/05/04 05:45:28;;;;;;;;;34.00;31.00;;;;;;;;5059103;28;45450;-76
2022/05/04 05:47:54;;;;;;;;;30.50;28.50;;;;;;;;5057486;28;46870;-76
2022/05/04 05:50:19;;;;;;;;;47.25;35.00;;;;;;;;5060353;28;45154;-76
2022/05/04 05:52:44;;;;;;;;;46.00;30.50;;;;;;;;5057965;28;45248;-76
2022/05/04 05:55:10;;;;;;;;;28.75;24.50;;;;;;;;5061443;28;45142;-77
2022/05/04 05:57:35;;;;;;;;;37.50;31.00;;;;;;;;5055646;28;46040;-76
2022/05/04 06:00:01;;;;;;;;;30.25;25.75;;;;;;;;5057010;28;45261;-76
2022/05/04 06:02:27;;;;;;;;;34.25;29.00;;;;;;;;5056955;28;45340;-76
2022/05/04 06:04:52;;;;;;;;;31.00;28.00;;;;;;;;5057206;28;45578;-76
2022/05/04 06:07:17;;;;;;;;;35.75;32.50;;;;;;;;5055113;28;46169;-75
2022/05/04 06:09:43;;;;;;;;;25.25;22.75;;;;;;;;5061409;28;45420;-75
2022/05/04 06:12:08;;;;;;;;;40.50;32.25;;;;;;;;5058179;28;45315;-75
2022/05/04 06:14:33;;;;;;;;;34.50;32.00;;;;;;;;5052795;28;47249;-74
2022/05/04 06:16:58;;;;;;;;;36.00;31.00;;;;;;;;5056391;28;45511;-76
2022/05/04 06:19:24;;;;;;;;;29.75;29.00;;;;;;;;5059928;28;45545;-76
2022/05/04 06:21:49;;;;;;;;;35.00;28.75;;;;;;;;5059602;28;45379;-75
2022/05/04 06:24:14;;;;;;;;;32.00;29.00;;;;;;;;5058346;28;45351;-75
2022/05/04 06:26:39;;;;;;;;;28.50;25.25;;;;;;;;5058423;28;46304;-75
2022/05/04 06:29:05;;;;;;;;;29.25;27.75;;;;;;;;5059250;28;45334;-76
2022/05/04 06:34:14;;;;;;;;;34.25;32.00;;;;;;;;5058191;28;45355;-75
2022/05/04 06:36:40;;;;;;;;;33.00;29.25;;;;;;;;5058171;28;46020;-76
2022/05/04 06:39:06;;;;;;;;;37.25;30.50;;;;;;;;5053773;28;45457;-76
2022/05/04 06:41:32;;;;;;;;;37.50;28.75;;;;;;;;5058931;28;45257;-75
2022/05/04 06:43:57;;;;;;;;;42.25;31.00;;;;;;;;5057695;28;45249;-75
2022/05/04 06:46:22;;;;;;;;;37.75;32.75;;;;;;;;5056889;28;45325;-74
2022/05/04 06:48:48;;;;;;;;;32.00;27.50;;;;;;;;5057691;28;44711;-75
2022/05/04 06:51:13;;;;;;;;;35.50;28.00;;;;;;;;5059103;28;45267;-75
2022/05/04 06:53:38;;;;;;;;;33.25;29.75;;;;;;;;5051140;28;45404;-75
2022/05/04 06:56:04;;;;;;;;;39.25;35.00;;;;;;;;5060831;28;46338;-76
2022/05/04 06:58:29;;;;;;;;;36.50;29.25;;;;;;;;5050951;28;45219;-76
2022/05/04 07:00:54;;;;;;;;;36.50;30.00;;;;;;;;5061469;28;45224;-75
2022/05/04 07:03:22;;;;;;;;;33.50;29.25;;;;;;;;5052429;28;46146;-74
2022/05/04 07:05:48;;;;;;;;;41.25;30.25;;;;;;;;5060692;28;45287;-75
2022/05/04 07:08:13;;;;;;;;;40.25;33.00;;;;;;;;5051314;28;45355;-75
2022/05/04 07:10:38;;;;;;;;;28.50;26.25;;;;;;;;5060772;28;45306;-75
2022/05/04 07:13:04;;;;;;;;;33.50;31.25;;;;;;;;5049103;28;45482;-75
2022/05/04 07:15:29;;;;;;;;;33.75;30.00;;;;;;;;5059728;28;45453;-76
2022/05/04 07:17:56;;;;;;;;;40.00;32.50;;;;;;;;5052600;28;45686;-75
2022/05/04 07:20:21;;;;;;;;;34.25;31.75;;;;;;;;5059880;28;45282;-74
2022/05/04 07:22:46;;;;;;;;;34.75;31.00;;;;;;;;5054881;28;45247;-75
2022/05/04 07:25:11;;;;;;;;;41.00;31.50;;;;;;;;5080412;27;48236;-74
2022/05/04 07:27:37;;;;;;;;;31.00;26.25;;;;;;;;5050198;28;45444;-74
2022/05/04 07:30:02;;;;;;;;;36.00;29.50;;;;;;;;5059749;28;45451;-75
2022/05/04 07:32:28;;;;;;;;;34.25;31.00;;;;;;;;5053312;28;46748;-75
2022/05/04 07:34:53;;;;;;;;;40.50;35.00;;;;;;;;5064583;28;46925;-75
2022/05/04 07:37:18;;;;;;;;;38.50;31.75;;;;;;;;5054405;28;45575;-74
2022/05/04 07:42:27;;;;;;;;;37.25;33.75;;;;;;;;5054832;28;45323;-75
2022/05/04 07:44:59;;;;;;;;;37.50;28.75;;;;;;;;5057116;28;45485;-75
2022/05/04 07:47:29;;;;;;;;;38.75;32.50;;;;;;;;5052897;28;45337;-75
2022/05/04 07:49:54;;;;;;;;;39.50;31.75;;;;;;;;5052344;28;45340;-74
2022/05/04 07:52:20;;;;;;;;;52.75;42.00;;;;;;;;5052500;28;45686;-74
2022/05/04 07:54:45;;;;;;;;;54.75;44.50;;;;;;;;5051779;28;46301;-75
2022/05/04 07:57:10;;;;;;;;;51.00;38.50;;;;;;;;5056769;28;45328;-74
2022/05/04 07:59:35;;;;;;;;;37.00;32.50;;;;;;;;5042639;28;45408;-73
2022/05/04 08:04:45;;;;;;;;;52.75;40.75;;;;;;;;5055364;28;45427;-76
2022/05/04 08:07:10;;;;;;;;;39.25;32.75;;;;;;;;5051066;28;45420;-73
2022/05/04 08:09:36;;;;;;;;;36.25;30.25;;;;;;;;5053850;28;45578;-74
2022/05/04 08:12:06;;;;;;;;;51.25;40.75;;;;;;;;5052829;28;45367;-73
2022/05/04 08:14:31;;;;;;;;;46.50;34.50;;;;;;;;5051415;28;47159;-73
2022/05/04 08:16:56;;;;;;;;;52.75;37.75;;;;;;;;5054020;28;45383;-73
2022/05/04 08:19:22;;;;;;;;;48.50;38.25;;;;;;;;5056990;28;45367;-74
2022/05/04 08:21:47;;;;;;;;;54.00;40.75;;;;;;;;5055520;28;45305;-74
2022/05/04 08:24:12;;;;;;;;;51.25;40.25;;;;;;;;5055561;28;46206;-73
2022/05/04 08:26:37;;;;;;;;;51.25;40.25;;;;;;;;5056459;28;45530;-75
2022/05/04 08:29:03;;;;;;;;;49.50;37.50;;;;;;;;5053901;28;45347;-74
2022/05/04 08:31:29;;;;;;;;;42.25;34.75;;;;;;;;5056869;28;45470;-75
2022/05/04 08:33:55;;;;;;;;;43.25;33.50;;;;;;;;5049617;28;45502;-75
2022/05/04 08:36:20;;;;;;;;;38.75;33.25;;;;;;;;5055948;28;45509;-74
2022/05/04 08:38:45;;;;;;;;;32.75;31.50;;;;;;;;5052064;28;45320;-74
2022/05/04 08:41:11;;;;;;;;;35.50;32.25;;;;;;;;5056494;28;45984;-74
2022/05/04 08:43:39;;;;;;;;;37.00;31.75;;;;;;;;5054493;28;46588;-74
2022/05/04 08:46:04;;;;;;;;;38.00;30.50;;;;;;;;5057588;28;45921;-74
2022/05/04 08:48:32;;;;;;;;;46.25;33.75;;;;;;;;5054545;28;45413;-74
2022/05/04 08:51:01;;;;;;;;;33.75;29.50;;;;;;;;5058554;28;45379;-73
2022/05/04 08:53:27;;;;;;;;;41.50;35.25;;;;;;;;5056550;28;45534;-74
2022/05/04 08:55:52;;;;;;;;;46.75;35.25;;;;;;;;5057919;28;45390;-73
2022/05/04 08:58:18;;;;;;;;;33.25;28.25;;;;;;;;5055551;28;45374;-73
2022/05/04 09:00:43;;;;;;;;;36.50;30.50;;;;;;;;5057793;28;45447;-74
2022/05/04 09:03:08;;;;;;;;;39.25;31.75;;;;;;;;5056585;28;45247;-75
2022/05/04 09:05:39;;;;;;;;;24.00;24.00;;;;;;;;5056471;28;45310;-74
2022/05/04 09:08:05;;;;;;;;;34.75;30.25;;;;;;;;5052762;28;45487;-74
2022/05/04 09:10:34;;;;;;;;;37.75;34.50;;;;;;;;5056423;28;45485;-73
2022/05/04 09:12:59;;;;;;;;;36.25;29.00;;;;;;;;5055467;28;46002;-74
2022/05/04 09:15:26;;;;;;;;;41.50;34.25;;;;;;;;5049293;28;45495;-74
2022/05/04 09:17:58;;;;;;;;;40.50;30.75;;;;;;;;5053754;28;45284;-74
2022/05/04 09:23:09;;;;;;;;;37.50;32.00;;;;;;;;5058318;28;45262;-74
2022/05/04 09:25:35;;;;;;;;;37.50;31.75;;;;;;;;5060994;28;45312;-74
2022/05/04 09:28:01;;;;;;;;;30.00;29.00;;;;;;;;5055070;28;45427;-73
2022/05/04 09:30:26;;;;;;;;;33.67;32.00;;;;;;;;5058172;28;45628;-74
2022/05/04 09:32:51;;;;;;;;;37.00;33.67;;;;;;;;5079094;27;47148;-74
2022/05/04 09:35:17;;;;;;;;;39.33;31.33;;;;;;;;5058277;28;45449;-74
2022/05/04 09:46:03;;;;;;;;;39.33;31.67;;;;;;;;5059430;28;45426;-74
2022/05/04 09:48:33;;;;;;;;;36.00;32.33;;;;;;;;5060000;28;45410;-75
2022/05/04 09:51:05;;;;;;;;;33.33;30.33;;;;;;;;5059756;28;45517;-74
2022/05/04 09:53:31;;;;;;;;;38.33;32.67;;;;;;;;5059278;28;46787;-74
2022/05/04 09:55:57;;;;;;;;;41.33;32.33;;;;;;;;5059703;28;45407;-74
2022/05/04 09:58:23;;;;;;;;;31.67;29.33;;;;;;;;5057546;28;45474;-74
2022/05/04 10:00:49;;;;;;;;;30.00;25.33;;;;;;;;5060059;28;45506;-74
2022/05/04 10:03:14;;;;;;;;;32.33;27.00;;;;;;;;5059128;28;46146;-73
2022/05/04 10:05:39;;;;;;;;;31.33;27.00;;;;;;;;5060246;28;45437;-73
2022/05/04 10:08:05;;;;;;;;;31.67;27.67;;;;;;;;5059423;28;45437;-74
2022/05/04 10:10:30;;;;;;;;;27.33;24.00;;;;;;;;5059624;28;45519;-74
2022/05/04 10:12:55;;;;;;;;;33.67;25.67;;;;;;;;5057637;28;45684;-73
2022/05/04 10:15:21;;;;;;;;;30.67;24.33;;;;;;;;5059659;28;45502;-74
2022/05/04 10:17:55;;;;;;;;;31.00;27.00;;;;;;;;5059162;28;45599;-75
2022/05/04 10:20:22;;;;;;;;;28.33;24.67;;;;;;;;5058048;28;45354;-73
2022/05/04 10:23:08;;;;;;;;;30.00;27.00;;;;;;;;5053808;28;46162;-73
2022/05/04 10:25:34;;;;;;;;;27.67;22.33;;;;;;;;5052428;28;45399;-74
2022/05/04 10:28:10;;;;;;;;;25.00;21.33;;;;;;;;5059814;28;45360;-73
2022/05/04 10:30:45;;;;;;;;;23.00;18.00;;;;;;;;5060406;28;45324;-74
2022/05/04 10:33:10;;;;;;;;;21.00;18.67;;;;;;;;5058005;28;46259;-72
2022/05/04 10:35:41;;;;;;;;;17.67;15.33;;;;;;;;5060813;28;45347;-72
2022/05/04 10:38:10;;;;;;;;;12.00;10.33;;;;;;;;5060555;28;45211;-74
2022/05/04 10:40:53;;;;;;;;;15.00;12.00;;;;;;;;5059129;28;45967;-73
2022/05/04 10:43:33;;;;;;;;;14.67;11.00;;;;;;;;5059684;28;46217;-73
2022/05/04 10:46:03;;;;;;;;;13.67;12.33;;;;;;;;5052796;28;45327;-72
2022/05/04 10:48:28;;;;;;;;;9.33;9.33;;;;;;;;5058367;28;45431;-74
2022/05/04 10:50:57;;;;;;;;;9.50;9.50;;;;;;;;5060672;28;45307;-75
2022/05/04 10:53:26;;;;;;;;;10.25;10.25;;;;;;;;5059687;28;45448;-73
2022/05/04 10:56:03;;;;;;;;;2.50;2.50;;;;;;;;5051818;28;45316;-74
2022/05/04 10:58:41;;;;;;;;;11.50;11.00;;;;;;;;5059031;28;45492;-73
2022/05/04 11:01:11;;;;;;;;;9.00;9.00;;;;;;;;5059886;28;45359;-73
2022/05/04 11:03:38;;;;;;;;;14.00;14.00;;;;;;;;5059394;28;45318;-73
2022/05/04 11:06:09;;;;;;;;;10.00;10.00;;;;;;;;5059928;28;45242;-74
2022/05/04 11:08:36;;;;;;;;;9.50;7.75;;;;;;;;5059408;28;45308;-73
2022/05/04 11:11:01;;;;;;;;;14.25;11.50;;;;;;;;5057013;28;45375;-72
2022/05/04 11:13:28;;;;;;;;;13.25;9.50;;;;;;;;5047246;28;45675;-73
2022/05/04 11:15:53;;;;;;;;;13.25;13.25;;;;;;;;5060036;28;45417;-73
2022/05/04 11:18:19;;;;;;;;;12.25;10.00;;;;;;;;5059426;28;45299;-73
2022/05/04 11:20:47;;;;;;;;;10.00;10.00;;;;;;;;5060073;28;45259;-73
2022/05/04 11:23:13;;;;;;;;;8.00;6.25;;;;;;;;5055616;28;46432;-73
2022/05/04 11:25:38;;;;;;;;;9.50;8.25;;;;;;;;5058549;28;45885;-73
2022/05/04 11:28:03;;;;;;;;;10.50;9.25;;;;;;;;5059793;28;45323;-73
2022/05/04 11:30:30;;;;;;;;;8.50;8.50;;;;;;;;5057880;28;45406;-73
2022/05/04 11:32:55;;;;;;;;;10.50;10.00;;;;;;;;5055950;28;46452;-74
2022/05/04 11:35:20;;;;;;;;;12.25;9.00;;;;;;;;5059473;28;45685;-72
2022/05/04 11:37:46;;;;;;;;;9.00;7.75;;;;;;;;5059224;28;45433;-73
2022/05/04 11:40:15;;;;;;;;;13.00;10.00;;;;;;;;5058794;28;45504;-73
2022/05/04 11:42:40;;;;;;;;;10.00;7.75;;;;;;;;5054051;28;45388;-71
2022/05/04 11:45:06;;;;;;;;;10.25;8.50;;;;;;;;5058686;28;45866;-75
2022/05/04 11:47:31;;;;;;;;;9.00;5.50;;;;;;;;5059037;28;45719;-74
2022/05/04 11:49:56;;;;;;;;;6.50;6.50;;;;;;;;5059341;28;45359;-74
2022/05/04 11:52:22;;;;;;;;;9.50;7.75;;;;;;;;5058000;28;45395;-74
2022/05/04 11:54:47;;;;;;;;;6.00;6.00;;;;;;;;5057556;28;45564;-75
2022/05/04 11:57:13;;;;;;;;;7.00;7.00;;;;;;;;5058804;28;45469;-74
2022/05/04 11:59:38;;;;;;;;;8.00;6.50;;;;;;;;5058406;28;45431;-75
2022/05/04 12:02:04;;;;;;;;;6.00;6.00;;;;;;;;5058175;28;45592;-74
2022/05/04 12:04:29;;;;;;;;;8.60;6.60;;;;;;;;5055877;28;45478;-75
2022/05/04 12:06:56;;;;;;;;;5.50;5.50;;;;;;;;5055128;28;45658;-75
2022/05/04 12:09:21;;;;;;;;;6.00;4.50;;;;;;;;5057888;28;45290;-73
2022/05/04 12:11:47;;;;;;;;;4.00;4.00;;;;;;;;5056981;28;47262;-73
2022/05/04 12:14:15;;;;;;;;;5.60;4.60;;;;;;;;5056379;28;46496;-73
2022/05/04 12:16:41;;;;;;;;;5.00;5.00;;;;;;;;5058998;28;45353;-73
2022/05/04 12:19:06;;;;;;;;;7.00;5.00;;;;;;;;5057842;28;45511;-73
2022/05/04 12:21:32;;;;;;;;;5.75;5.75;;;;;;;;5056964;28;47362;-72
2022/05/04 12:24:00;;;;;;;;;5.75;5.25;;;;;;;;5058120;28;45483;-73
2022/05/04 12:26:25;;;;;;;;;6.25;5.00;;;;;;;;5058666;28;45693;-73
2022/05/04 12:34:22;;;;;;;;;4.60;4.60;;;;;;;;5057890;28;45438;-72
2022/05/04 12:36:47;;;;;;;;;5.75;4.50;;;;;;;;5058566;28;45269;-72
2022/05/04 12:39:12;;;;;;;;;1.00;1.00;;;;;;;;5057621;28;45671;-72
2022/05/04 12:41:38;;;;;;;;;4.00;2.25;;;;;;;;5057949;28;45466;-71
2022/05/04 12:44:04;;;;;;;;;4.00;4.00;;;;;;;;5055776;28;45257;-72
2022/05/04 12:46:29;;;;;;;;;7.25;5.75;;;;;;;;5058392;28;45459;-73
2022/05/04 12:48:56;;;;;;;;;4.75;4.75;;;;;;;;5057480;28;45542;-71
2022/05/04 12:51:24;;;;;;;;;6.00;6.00;;;;;;;;5057924;28;46461;-73
2022/05/04 12:53:49;;;;;;;;;3.25;3.25;;;;;;;;5057397;28;45331;-73
2022/05/04 12:59:02;;;;;;;;;5.00;4.00;;;;;;;;5055188;28;45619;-73
2022/05/04 13:01:28;;;;;;;;;2.00;2.00;;;;;;;;5056041;28;47085;-74
2022/05/04 13:03:53;;;;;;;;;3.00;3.00;;;;;;;;5057149;28;45375;-74
2022/05/04 13:06:19;;;;;;;;;6.00;5.00;;;;;;;;5057890;28;45633;-73
2022/05/04 13:08:46;;;;;;;;;3.75;3.00;;;;;;;;5057123;28;45577;-73
2022/05/04 13:11:11;;;;;;;;;4.75;3.50;;;;;;;;5057498;28;46551;-72
2022/05/04 13:13:36;;;;;;;;;1.75;1.75;;;;;;;;5056844;28;45390;-72
2022/05/04 13:16:02;;;;;;;;;4.25;2.75;;;;;;;;5056812;28;45419;-73
2022/05/04 13:18:27;;;;;;;;;3.00;3.00;;;;;;;;5057036;28;45314;-72
2022/05/04 13:20:52;;;;;;;;;4.00;3.00;;;;;;;;5056549;28;47249;-72
2022/05/04 13:23:17;;;;;;;;;4.25;3.25;;;;;;;;5057306;28;45392;-72
2022/05/04 13:25:43;;;;;;;;;2.75;2.75;;;;;;;;5057836;28;45379;-72
2022/05/04 13:28:08;;;;;;;;;4.75;4.75;;;;;;;;5057087;28;45306;-72
2022/05/04 13:30:34;;;;;;;;;3.50;3.50;;;;;;;;5057479;28;46172;-72
2022/05/04 13:33:01;;;;;;;;;4.75;3.75;;;;;;;;5057096;28;45395;-72
2022/05/04 13:35:26;;;;;;;;;2.50;1.75;;;;;;;;5057977;28;45296;-72
2022/05/04 13:37:51;;;;;;;;;2.00;2.00;;;;;;;;5056642;28;45354;-73
2022/05/04 13:40:17;;;;;;;;;0.75;0.75;;;;;;;;5057568;28;45971;-73
2022/05/04 13:42:42;;;;;;;;;3.75;3.00;;;;;;;;5056283;28;45396;-73
2022/05/04 13:45:11;;;;;;;;;5.50;4.25;;;;;;;;5057323;28;45502;-73
2022/05/04 13:47:37;;;;;;;;;2.00;2.00;;;;;;;;5057014;28;45459;-73
2022/05/04 13:50:02;;;;;;;;;4.00;4.00;;;;;;;;5057746;28;45517;-72
2022/05/04 13:55:12;;;;;;;;;1.50;1.50;;;;;;;;5057698;28;45350;-74
2022/05/04 13:57:38;;;;;;;;;3.00;3.00;;;;;;;;5056715;28;45502;-72
2022/05/04 14:00:03;;;;;;;;;4.00;3.00;;;;;;;;5057198;28;46434;-72
2022/05/04 14:02:28;;;;;;;;;2.25;2.00;;;;;;;;5057707;28;45676;-73
2022/05/04 14:04:54;;;;;;;;;2.75;2.75;;;;;;;;5061013;28;45494;-72
2022/05/04 14:07:19;;;;;;;;;0.75;0.75;;;;;;;;5060532;28;45254;-72
2022/05/04 14:09:46;;;;;;;;;2.50;2.50;;;;;;;;5060952;28;46015;-72
2022/05/04 14:12:11;;;;;;;;;1.00;1.00;;;;;;;;5060307;28;45454;-72
2022/05/04 14:17:21;;;;;;;;;2.25;1.75;;;;;;;;5060040;28;45304;-72
2022/05/04 14:19:46;;;;;;;;;1.00;1.00;;;;;;;;5060633;28;46769;-71
2022/05/04 14:22:11;;;;;;;;;3.50;2.00;;;;;;;;5058912;28;45337;-73
2022/05/04 14:24:37;;;;;;;;;3.50;3.50;;;;;;;;5060694;28;45320;-73
2022/05/04 14:27:02;;;;;;;;;4.00;2.00;;;;;;;;5060221;28;45255;-73
2022/05/04 14:29:27;;;;;;;;;2.75;2.75;;;;;;;;5060289;28;46260;-73
2022/05/04 14:31:52;;;;;;;;;2.75;2.75;;;;;;;;5059989;28;45352;-73
2022/05/04 14:34:18;;;;;;;;;1.75;1.75;;;;;;;;5059770;28;45394;-74
2022/05/04 14:36:43;;;;;;;;;3.25;2.00;;;;;;;;5060312;28;45518;-73
2022/05/04 14:39:08;;;;;;;;;2.00;2.00;;;;;;;;5059166;28;46429;-73
2022/05/04 14:41:34;;;;;;;;;3.00;3.00;;;;;;;;5059974;28;45434;-74
2022/05/04 14:43:59;;;;;;;;;3.00;3.00;;;;;;;;5059591;28;45563;-74
2022/05/04 14:46:25;;;;;;;;;2.75;2.75;;;;;;;;5059994;28;45398;-74
2022/05/04 14:48:50;;;;;;;;;3.00;3.00;;;;;;;;5059140;28;46251;-73
2022/05/04 14:51:15;;;;;;;;;3.50;2.00;;;;;;;;5060394;28;45521;-73
2022/05/04 14:53:40;;;;;;;;;1.50;1.00;;;;;;;;5059638;28;45423;-73
2022/05/04 14:56:06;;;;;;;;;2.75;2.75;;;;;;;;5060190;28;45442;-72
2022/05/04 14:58:31;;;;;;;;;1.00;1.00;;;;;;;;5059213;28;46326;-72
2022/05/04 15:00:57;;;;;;;;;3.00;3.00;;;;;;;;5059982;28;45423;-72